createdAt,value
2018-11-04T00:01:36.332Z,10.32
2018-11-04T00:04:05.324Z,10.28
2018-11-04T00:06:34.076Z,10.17
2018-11-04T00:09:02.951Z,10.07
2018-11-04T00:11:31.782Z,10.05
2018-11-04T00:14:00.575Z,10.13
2018-11-04T00:16:36.182Z,10.14
2018-11-04T00:19:05.404Z,10.08
2018-11-04T00:21:34.312Z,10.02
2018-11-04T00:24:03.233Z,9.99
2018-11-04T00:26:32.162Z,9.99
2018-11-04T00:29:00.926Z,9.99
2018-11-04T00:31:29.718Z,9.97
2018-11-04T00:33:58.466Z,10.00
2018-11-04T00:36:27.255Z,9.99
2018-11-04T00:38:56.039Z,10.06
2018-11-04T00:41:24.884Z,10.00
2018-11-04T00:43:53.808Z,9.99
2018-11-04T00:46:22.629Z,9.91
2018-11-04T00:48:51.417Z,9.90
2018-11-04T00:51:20.177Z,9.88
2018-11-04T00:53:48.974Z,9.81
2018-11-04T00:56:17.763Z,9.87
2018-11-04T00:58:46.575Z,9.89
2018-11-04T01:01:15.382Z,9.94
2018-11-04T01:03:44.147Z,9.94
2018-11-04T01:06:12.918Z,9.92
2018-11-04T01:08:41.712Z,9.91
2018-11-04T01:11:10.483Z,9.87
2018-11-04T01:13:39.242Z,9.89
2018-11-04T01:16:08.030Z,9.90
2018-11-04T01:18:36.849Z,9.93
2018-11-04T01:21:05.939Z,9.90
2018-11-04T01:23:34.905Z,9.91
2018-11-04T01:26:03.702Z,9.88
2018-11-04T01:28:32.479Z,9.88
2018-11-04T01:31:01.245Z,9.89
2018-11-04T01:33:29.974Z,9.93
2018-11-04T01:35:59.059Z,9.93
2018-11-04T01:38:27.864Z,9.91
2018-11-04T01:40:56.650Z,9.92
2018-11-04T01:43:25.434Z,9.94
2018-11-04T01:45:54.232Z,9.91
2018-11-04T01:48:23.055Z,9.88
2018-11-04T01:51:07.494Z,9.89
2018-11-04T01:53:36.798Z,9.91
2018-11-04T01:56:05.859Z,9.84
2018-11-04T01:58:34.642Z,9.89
2018-11-04T02:01:03.469Z,9.85
2018-11-04T02:03:32.892Z,9.92
2018-11-04T02:06:01.598Z,9.99
2018-11-04T02:08:30.346Z,9.99
2018-11-04T02:10:59.155Z,10.02
2018-11-04T02:13:27.935Z,10.03
2018-11-04T02:15:56.768Z,10.06
2018-11-04T02:18:25.523Z,10.03
2018-11-04T02:20:54.363Z,10.01
2018-11-04T02:23:23.338Z,9.99
2018-11-04T02:25:52.135Z,10.00
2018-11-04T02:28:20.902Z,9.96
2018-11-04T02:30:49.692Z,9.88
2018-11-04T02:33:18.474Z,9.78
2018-11-04T02:35:47.249Z,9.70
2018-11-04T02:38:16.018Z,9.58
2018-11-04T02:40:44.962Z,9.53
2018-11-04T02:43:13.723Z,9.55
2018-11-04T02:45:42.566Z,9.45
2018-11-04T02:48:11.378Z,9.45
2018-11-04T02:50:40.167Z,9.33
2018-11-04T02:53:08.928Z,9.36
2018-11-04T02:55:37.717Z,9.40
2018-11-04T02:58:06.659Z,9.48
2018-11-04T03:00:35.588Z,9.53
2018-11-04T03:03:04.324Z,9.51
2018-11-04T03:05:33.147Z,9.43
2018-11-04T03:08:01.897Z,9.34
2018-11-04T03:10:30.680Z,9.19
2018-11-04T03:12:59.467Z,9.10
2018-11-04T03:15:28.284Z,9.02
2018-11-04T03:17:57.099Z,8.99
2018-11-04T03:20:25.994Z,8.97
2018-11-04T03:22:55.789Z,8.97
2018-11-04T03:25:24.548Z,8.96
2018-11-04T03:27:53.342Z,8.92
2018-11-04T03:30:22.302Z,8.89
2018-11-04T03:32:51.091Z,8.90
2018-11-04T03:35:19.951Z,8.86
2018-11-04T03:37:48.719Z,8.88
2018-11-04T03:40:18.532Z,8.87
2018-11-04T03:42:47.402Z,8.82
2018-11-04T03:45:16.116Z,8.84
2018-11-04T03:47:44.875Z,8.84
2018-11-04T03:50:13.737Z,8.79
2018-11-04T03:52:42.922Z,8.81
2018-11-04T03:55:11.666Z,8.83
2018-11-04T03:57:40.459Z,8.81
2018-11-04T04:00:11.963Z,8.82
2018-11-04T04:02:41.345Z,8.73
2018-11-04T04:05:10.909Z,8.75
2018-11-04T04:07:39.727Z,8.73
2018-11-04T04:10:09.890Z,8.72
2018-11-04T04:12:38.895Z,8.73
2018-11-04T04:15:09.160Z,8.69
2018-11-04T04:17:37.889Z,8.53
2018-11-04T04:20:07.686Z,8.32
2018-11-04T04:22:37.051Z,8.22
2018-11-04T04:25:09.227Z,8.22
2018-11-04T04:27:37.987Z,8.24
2018-11-04T04:30:11.558Z,8.23
2018-11-04T04:32:40.338Z,8.25
2018-11-04T04:35:10.135Z,8.15
2018-11-04T04:37:38.980Z,8.20
2018-11-04T04:40:08.009Z,8.25
2018-11-04T04:42:36.774Z,8.26
2018-11-04T04:45:06.124Z,8.33
2018-11-04T04:47:35.414Z,8.26
2018-11-04T04:50:04.550Z,8.10
2018-11-04T04:52:33.399Z,8.05
2018-11-04T04:55:02.408Z,8.09
2018-11-04T04:57:31.208Z,8.12
2018-11-04T04:59:59.990Z,8.17
2018-11-04T05:02:28.774Z,8.25
2018-11-04T05:04:57.684Z,8.22
2018-11-04T05:07:26.537Z,8.23
2018-11-04T05:09:55.312Z,8.21
2018-11-04T05:12:24.085Z,8.18
2018-11-04T05:14:52.846Z,8.19
2018-11-04T05:17:21.634Z,8.23
2018-11-04T05:19:50.413Z,8.31
2018-11-04T05:22:19.183Z,8.40
2018-11-04T05:24:47.954Z,8.45
2018-11-04T05:27:16.779Z,8.54
2018-11-04T05:29:45.547Z,8.60
2018-11-04T05:32:14.318Z,8.61
2018-11-04T05:34:43.054Z,8.58
2018-11-04T05:37:11.803Z,8.64
2018-11-04T05:39:40.569Z,8.73
2018-11-04T05:42:09.411Z,8.81
2018-11-04T05:44:38.406Z,8.91
2018-11-04T05:47:07.914Z,8.99
2018-11-04T05:49:36.881Z,9.10
2018-11-04T05:52:05.688Z,9.16
2018-11-04T05:54:34.537Z,9.24
2018-11-04T05:57:03.357Z,9.25
2018-11-04T05:59:32.172Z,9.23
2018-11-04T06:02:01.057Z,9.32
2018-11-04T06:04:30.461Z,9.44
2018-11-04T06:07:00.317Z,9.57
2018-11-04T06:09:29.750Z,9.63
2018-11-04T06:11:58.564Z,9.65
2018-11-04T06:14:27.436Z,9.76
2018-11-04T06:16:56.371Z,9.89
2018-11-04T06:19:26.119Z,9.99
2018-11-04T06:21:55.115Z,10.07
2018-11-04T06:24:24.048Z,10.26
2018-11-04T06:26:52.841Z,10.41
2018-11-04T06:29:21.994Z,10.51
2018-11-04T06:31:50.787Z,10.60
2018-11-04T06:34:19.698Z,10.59
2018-11-04T06:36:48.710Z,10.66
2018-11-04T06:39:18.308Z,10.81
2018-11-04T06:41:47.110Z,10.88
2018-11-04T06:44:16.138Z,10.99
2018-11-04T06:46:44.919Z,11.12
2018-11-04T06:49:13.881Z,11.21
2018-11-04T06:51:42.823Z,11.33
2018-11-04T06:54:11.913Z,11.31
2018-11-04T06:56:40.763Z,11.20
2018-11-04T06:59:09.578Z,11.35
2018-11-04T07:01:38.440Z,11.45
2018-11-04T07:04:17.257Z,11.53
2018-11-04T07:06:46.582Z,11.58
2018-11-04T07:09:16.483Z,11.66
2018-11-04T07:11:46.262Z,11.64
2018-11-04T07:14:15.608Z,11.64
2018-11-04T07:16:44.783Z,11.52
2018-11-04T07:19:14.327Z,11.50
2018-11-04T07:21:43.242Z,11.61
2018-11-04T07:24:12.452Z,11.70
2018-11-04T07:26:41.786Z,11.73
2018-11-04T07:29:10.770Z,11.77
2018-11-04T07:31:39.670Z,11.89
2018-11-04T07:34:08.635Z,11.99
2018-11-04T07:36:37.459Z,11.97
2018-11-04T07:39:09.431Z,11.91
2018-11-04T07:41:38.203Z,11.91
2018-11-04T07:44:07.021Z,11.91
2018-11-04T07:46:35.815Z,11.98
2018-11-04T07:49:05.162Z,12.10
2018-11-04T07:51:33.970Z,12.17
2018-11-04T07:54:02.922Z,11.78
2018-11-04T07:56:31.714Z,12.01
2018-11-04T07:59:00.757Z,12.05
2018-11-04T08:01:29.802Z,12.15
2018-11-04T08:03:58.591Z,12.26
2018-11-04T08:06:27.339Z,12.35
2018-11-04T08:08:56.115Z,12.41
2018-11-04T08:11:24.916Z,12.51
2018-11-04T08:13:58.590Z,12.55
2018-11-04T08:16:27.677Z,12.62
2018-11-04T08:18:56.471Z,12.66
2018-11-04T08:21:25.389Z,12.71
2018-11-04T08:23:54.319Z,12.78
2018-11-04T08:26:23.122Z,12.84
2018-11-04T08:28:51.923Z,12.88
2018-11-04T08:31:20.763Z,12.83
2018-11-04T08:33:49.604Z,12.85
2018-11-04T08:36:18.389Z,12.93
2018-11-04T08:38:47.196Z,12.91
2018-11-04T08:41:16.070Z,13.00
2018-11-04T08:46:25.383Z,13.11
2018-11-04T08:48:54.171Z,13.09
2018-11-04T08:51:22.945Z,13.18
2018-11-04T08:53:51.744Z,13.30
2018-11-04T08:56:20.579Z,13.46
2018-11-04T08:58:49.419Z,13.55
2018-11-04T09:01:18.320Z,13.60
2018-11-04T09:03:47.144Z,13.75
2018-11-04T09:06:16.048Z,13.87
2018-11-04T09:08:45.168Z,14.00
2018-11-04T09:11:14.105Z,14.12
2018-11-04T09:13:42.969Z,14.22
2018-11-04T09:16:11.894Z,14.34
2018-11-04T09:18:40.860Z,14.50
2018-11-04T09:21:09.732Z,14.56
2018-11-04T09:23:38.646Z,14.58
2018-11-04T09:26:07.751Z,14.70
2018-11-04T09:28:36.480Z,14.78
2018-11-04T09:31:05.392Z,14.84
2018-11-04T09:33:34.302Z,14.91
2018-11-04T09:36:03.180Z,15.00
2018-11-04T09:38:32.031Z,15.22
2018-11-04T09:41:00.784Z,15.30
2018-11-04T09:43:29.546Z,15.46
2018-11-04T09:45:58.347Z,15.36
2018-11-04T09:48:27.165Z,15.44
2018-11-04T09:50:56.747Z,15.52
2018-11-04T09:53:25.519Z,15.47
2018-11-04T09:55:54.354Z,15.57
2018-11-04T09:58:23.114Z,15.51
2018-11-04T10:00:51.889Z,15.48
2018-11-04T10:03:20.671Z,15.52
2018-11-04T10:05:49.452Z,15.48
2018-11-04T10:08:18.255Z,15.48
2018-11-04T10:10:47.043Z,15.54
2018-11-04T10:13:16.105Z,15.53
2018-11-04T10:15:45.138Z,15.52
2018-11-04T10:18:13.894Z,15.44
2018-11-04T10:20:43.217Z,15.49
2018-11-04T10:23:11.716Z,15.57
2018-11-04T10:25:40.532Z,15.62
2018-11-04T10:28:09.332Z,15.67
2018-11-04T10:30:38.095Z,15.82
2018-11-04T10:33:06.976Z,15.94
2018-11-04T10:35:35.781Z,15.91
2018-11-04T10:38:04.638Z,15.94
2018-11-04T10:40:33.386Z,15.91
2018-11-04T10:43:02.167Z,15.90
2018-11-04T10:45:30.957Z,16.05
2018-11-04T10:47:59.714Z,16.07
2018-11-04T10:50:28.624Z,16.25
2018-11-04T10:52:57.390Z,16.42
2018-11-04T10:55:26.218Z,16.44
2018-11-04T10:57:55.027Z,16.50
2018-11-04T11:00:28.930Z,16.58
2018-11-04T11:02:57.655Z,16.71
2018-11-04T11:05:27.001Z,16.86
2018-11-04T11:07:55.938Z,17.01
2018-11-04T11:10:24.782Z,17.19
2018-11-04T11:12:53.562Z,17.32
2018-11-04T11:15:22.394Z,17.36
2018-11-04T11:17:51.182Z,17.41
2018-11-04T11:20:19.930Z,17.48
2018-11-04T11:22:48.852Z,17.52
2018-11-04T11:25:18.163Z,17.59
2018-11-04T11:27:46.946Z,17.72
2018-11-04T11:30:15.862Z,17.85
2018-11-04T11:32:44.754Z,17.95
2018-11-04T11:35:13.502Z,17.78
2018-11-04T11:37:42.238Z,17.85
2018-11-04T11:40:11.259Z,17.89
2018-11-04T11:42:40.122Z,17.96
2018-11-04T11:45:09.739Z,18.09
2018-11-04T11:47:38.623Z,17.99
2018-11-04T11:50:07.719Z,17.97
2018-11-04T11:52:36.558Z,17.95
2018-11-04T11:55:05.882Z,17.90
2018-11-04T11:57:34.719Z,17.95
2018-11-04T12:00:08.138Z,18.03
2018-11-04T12:02:37.182Z,18.09
2018-11-04T12:05:06.490Z,18.12
2018-11-04T12:07:35.410Z,18.16
2018-11-04T12:10:05.315Z,18.21
2018-11-04T12:12:34.138Z,18.08
2018-11-04T12:15:03.062Z,18.15
2018-11-04T12:17:32.013Z,18.05
2018-11-04T12:20:00.973Z,18.06
2018-11-04T12:22:29.798Z,17.99
2018-11-04T12:24:58.593Z,17.94
2018-11-04T12:27:27.395Z,17.99
2018-11-04T12:29:56.235Z,18.01
2018-11-04T12:32:25.015Z,17.98
2018-11-04T12:34:53.826Z,17.95
2018-11-04T12:37:22.685Z,17.96
2018-11-04T12:39:51.440Z,17.91
2018-11-04T12:42:20.258Z,17.89
2018-11-04T12:44:48.998Z,17.86
2018-11-04T12:47:17.791Z,17.79
2018-11-04T12:49:46.570Z,17.80
2018-11-04T12:52:15.445Z,17.80
2018-11-04T12:54:44.337Z,17.79
2018-11-04T12:57:13.116Z,17.77
2018-11-04T12:59:41.979Z,17.79
2018-11-04T13:02:10.864Z,17.78
2018-11-04T13:04:39.666Z,17.76
2018-11-04T13:07:08.807Z,17.72
2018-11-04T13:09:37.626Z,17.73
2018-11-04T13:12:06.451Z,17.75
2018-11-04T13:14:35.221Z,17.74
2018-11-04T13:17:04.106Z,17.67
2018-11-04T13:19:32.956Z,17.69
2018-11-04T13:22:01.750Z,17.68
2018-11-04T13:24:30.510Z,17.66
2018-11-04T13:26:59.280Z,17.64
2018-11-04T13:29:28.256Z,17.65
2018-11-04T13:31:57.030Z,17.67
2018-11-04T13:34:25.813Z,17.63
2018-11-04T13:36:54.582Z,17.48
2018-11-04T13:39:23.400Z,17.41
2018-11-04T13:41:52.179Z,17.37
2018-11-04T13:44:21.032Z,17.39
2018-11-04T13:46:49.843Z,17.36
2018-11-04T13:49:18.633Z,17.33
2018-11-04T13:51:47.636Z,17.28
2018-11-04T13:54:16.419Z,17.29
2018-11-04T13:56:45.291Z,17.22
2018-11-04T13:59:14.101Z,17.21
2018-11-04T14:01:42.926Z,17.13
2018-11-04T14:04:11.722Z,17.09
2018-11-04T14:06:40.493Z,17.03
2018-11-04T14:09:09.731Z,16.95
2018-11-04T14:11:38.625Z,16.92
2018-11-04T14:14:07.412Z,16.88
2018-11-04T14:16:36.206Z,16.84
2018-11-04T14:19:05.168Z,16.79
2018-11-04T14:21:33.966Z,16.77
2018-11-04T14:24:02.747Z,16.70
2018-11-04T14:26:31.586Z,16.66
2018-11-04T14:29:00.392Z,16.59
2018-11-04T14:31:29.491Z,16.55
2018-11-04T14:33:58.285Z,16.51
2018-11-04T14:36:27.113Z,16.46
2018-11-04T14:38:56.460Z,16.38
2018-11-04T14:41:25.268Z,16.33
2018-11-04T14:43:54.094Z,16.25
2018-11-04T14:46:22.840Z,16.22
2018-11-04T14:48:51.672Z,16.17
2018-11-04T14:51:20.396Z,16.15
2018-11-04T14:53:49.156Z,16.06
2018-11-04T14:56:18.053Z,16.01
2018-11-04T14:58:46.822Z,16.01
2018-11-04T15:01:15.635Z,15.94
2018-11-04T15:03:44.576Z,15.90
2018-11-04T15:06:13.336Z,15.83
2018-11-04T15:08:42.138Z,15.75
2018-11-04T15:11:10.898Z,15.72
2018-11-04T15:13:39.928Z,15.69
2018-11-04T15:16:08.736Z,15.61
2018-11-04T15:18:37.652Z,15.58
2018-11-04T15:21:06.535Z,15.50
2018-11-04T15:23:35.345Z,15.40
2018-11-04T15:26:04.131Z,15.40
2018-11-04T15:28:33.171Z,15.35
2018-11-04T15:31:01.940Z,15.29
2018-11-04T15:33:30.729Z,15.26
2018-11-04T15:35:59.517Z,15.23
2018-11-04T15:38:28.344Z,15.19
2018-11-04T15:40:57.219Z,15.20
2018-11-04T15:43:26.034Z,15.11
2018-11-04T15:45:54.851Z,15.09
2018-11-04T15:48:23.695Z,15.05
2018-11-04T15:50:52.611Z,15.01
2018-11-04T15:53:21.419Z,15.02
2018-11-04T15:55:51.072Z,14.98
2018-11-04T15:58:19.935Z,14.99
2018-11-04T16:00:48.777Z,14.97
2018-11-04T16:03:17.559Z,14.92
2018-11-04T16:05:46.327Z,14.90
2018-11-04T16:08:15.346Z,14.88
2018-11-04T16:10:44.085Z,14.90
2018-11-04T16:13:12.882Z,14.89
2018-11-04T16:15:41.687Z,14.91
2018-11-04T16:18:10.763Z,14.86
2018-11-04T16:20:39.666Z,14.84
2018-11-04T16:23:08.455Z,14.76
2018-11-04T16:25:37.298Z,14.72
2018-11-04T16:28:06.706Z,14.74
2018-11-04T16:30:35.474Z,14.73
2018-11-04T16:33:04.264Z,14.67
2018-11-04T16:35:33.239Z,14.59
2018-11-04T16:38:02.404Z,14.56
2018-11-04T16:40:31.278Z,14.55
2018-11-04T16:43:00.019Z,14.49
2018-11-04T16:45:28.795Z,14.47
2018-11-04T16:47:58.131Z,14.38
2018-11-04T16:50:26.992Z,14.35
2018-11-04T16:52:55.830Z,14.26
2018-11-04T16:55:24.620Z,14.24
2018-11-04T16:57:53.399Z,14.23
2018-11-04T17:00:22.205Z,14.15
2018-11-04T17:02:51.079Z,14.10
2018-11-04T17:05:20.016Z,14.04
2018-11-04T17:07:48.947Z,13.94
2018-11-04T17:10:17.735Z,13.80
2018-11-04T17:12:46.905Z,13.76
2018-11-04T17:15:16.076Z,13.70
2018-11-04T17:17:45.044Z,13.66
2018-11-04T17:20:15.887Z,13.60
2018-11-04T17:22:45.084Z,13.59
2018-11-04T17:25:13.954Z,13.62
2018-11-04T17:27:42.922Z,13.54
2018-11-04T17:30:17.408Z,13.50
2018-11-04T17:32:46.568Z,13.45
2018-11-04T17:35:16.800Z,13.44
2018-11-04T17:37:46.455Z,13.37
2018-11-04T17:40:15.882Z,13.34
2018-11-04T17:42:44.806Z,13.27
2018-11-04T17:45:14.956Z,13.21
2018-11-04T17:47:44.180Z,13.14
2018-11-04T17:50:15.001Z,13.06
2018-11-04T17:52:44.293Z,13.02
2018-11-04T17:55:13.078Z,12.96
2018-11-04T17:57:41.879Z,12.92
2018-11-04T18:00:14.337Z,12.91
2018-11-04T18:02:43.734Z,12.93
2018-11-04T18:05:13.256Z,12.90
2018-11-04T18:07:43.314Z,12.94
2018-11-04T18:10:15.115Z,12.98
2018-11-04T18:12:44.052Z,12.97
2018-11-04T18:15:14.074Z,12.93
2018-11-04T18:17:42.863Z,12.95
2018-11-04T18:20:12.228Z,12.98
2018-11-04T18:22:41.045Z,12.94
2018-11-04T18:25:10.961Z,12.96
2018-11-04T18:27:46.626Z,12.99
2018-11-04T18:30:19.370Z,12.98
2018-11-04T18:32:48.159Z,12.99
2018-11-04T18:35:16.985Z,12.97
2018-11-04T18:37:45.791Z,13.02
2018-11-04T18:40:16.501Z,13.05
2018-11-04T18:42:45.846Z,13.06
2018-11-04T18:45:15.895Z,13.06
2018-11-04T18:47:45.083Z,13.06
2018-11-04T18:50:14.903Z,13.04
2018-11-04T18:52:43.939Z,12.99
2018-11-04T18:55:13.607Z,12.96
2018-11-04T18:57:43.220Z,12.99
2018-11-04T19:00:17.249Z,12.93
2018-11-04T19:02:46.614Z,12.87
2018-11-04T19:05:15.444Z,12.81
2018-11-04T19:07:44.509Z,12.75
2018-11-04T19:10:14.684Z,12.70
2018-11-04T19:12:43.933Z,12.65
2018-11-04T19:15:12.776Z,12.70
2018-11-04T19:17:41.630Z,12.66
2018-11-04T19:20:12.231Z,12.63
2018-11-04T19:22:41.158Z,12.52
2018-11-04T19:25:11.172Z,12.50
2018-11-04T19:27:40.146Z,12.39
2018-11-04T19:30:11.849Z,12.33
2018-11-04T19:32:40.711Z,12.26
2018-11-04T19:35:10.620Z,12.19
2018-11-04T19:37:39.791Z,12.08
2018-11-04T19:40:10.023Z,12.00
2018-11-04T19:42:39.161Z,11.97
2018-11-04T19:45:08.843Z,11.90
2018-11-04T19:47:38.608Z,11.81
2018-11-04T19:50:09.395Z,11.67
2018-11-04T19:52:38.205Z,11.53
2018-11-04T19:55:09.041Z,11.50
2018-11-04T19:57:37.814Z,11.36
2018-11-04T20:00:14.488Z,11.22
2018-11-04T20:02:43.261Z,11.17
2018-11-04T20:05:13.112Z,11.04
2018-11-04T20:07:42.156Z,11.03
2018-11-04T20:10:13.977Z,11.01
2018-11-04T20:12:48.026Z,11.05
2018-11-04T20:15:16.849Z,11.04
2018-11-04T20:17:46.223Z,11.09
2018-11-04T20:20:17.074Z,11.14
2018-11-04T20:22:45.999Z,11.23
2018-11-04T20:25:19.907Z,11.33
2018-11-04T20:27:49.718Z,11.37
2018-11-04T20:30:19.750Z,11.32
2018-11-04T20:32:53.806Z,11.37
2018-11-04T20:35:22.617Z,11.40
2018-11-04T20:37:51.381Z,11.44
2018-11-04T20:40:25.323Z,11.43
2018-11-04T20:42:54.155Z,11.45
2018-11-04T20:45:23.002Z,11.40
2018-11-04T20:47:57.012Z,11.34
2018-11-04T20:50:30.954Z,11.30
2018-11-04T20:52:59.777Z,11.28
2018-11-04T20:55:33.822Z,11.17
2018-11-04T20:58:02.717Z,11.20
2018-11-04T21:00:31.610Z,11.23
2018-11-04T21:03:00.439Z,11.27
2018-11-04T21:05:29.326Z,11.27
2018-11-04T21:07:58.162Z,11.30
2018-11-04T21:10:26.909Z,11.28
2018-11-04T21:12:55.678Z,11.27
2018-11-04T21:15:24.483Z,11.29
2018-11-04T21:17:53.266Z,11.31
2018-11-04T21:20:22.226Z,11.27
2018-11-04T21:22:51.065Z,11.27
2018-11-04T21:25:19.855Z,11.27
2018-11-04T21:27:48.921Z,11.14
2018-11-04T21:30:17.907Z,11.08
2018-11-04T21:32:46.701Z,11.02
2018-11-04T21:35:15.528Z,11.01
2018-11-04T21:37:44.752Z,10.86
2018-11-04T21:40:13.618Z,10.77
2018-11-04T21:42:42.728Z,10.69
2018-11-04T21:45:12.969Z,10.68
2018-11-04T21:47:41.987Z,10.68
2018-11-04T21:50:11.630Z,10.70
2018-11-04T21:52:40.585Z,10.74
2018-11-04T21:55:11.421Z,10.83
2018-11-04T21:57:41.335Z,10.92
2018-11-04T22:00:14.589Z,10.96
2018-11-04T22:02:43.598Z,10.98
2018-11-04T22:05:13.110Z,11.02
2018-11-04T22:07:43.124Z,11.04
2018-11-04T22:10:13.901Z,10.99
2018-11-04T22:12:43.005Z,10.97
2018-11-04T22:15:12.159Z,10.94
2018-11-04T22:17:41.764Z,10.92
2018-11-04T22:20:12.396Z,10.89
2018-11-04T22:22:41.279Z,10.92
2018-11-04T22:25:10.917Z,10.88
2018-11-04T22:27:39.745Z,10.86
2018-11-04T22:30:10.059Z,10.79
2018-11-04T22:32:39.494Z,10.79
2018-11-04T22:35:09.939Z,10.83
2018-11-04T22:37:39.006Z,10.81
2018-11-04T22:40:09.399Z,10.77
2018-11-04T22:42:38.313Z,10.76
2018-11-04T22:45:08.406Z,10.73
2018-11-04T22:47:37.226Z,10.67
2018-11-04T22:50:09.189Z,10.62
2018-11-04T22:52:38.141Z,10.71
2018-11-04T22:55:07.039Z,10.74
2018-11-04T22:57:35.839Z,10.76
2018-11-04T23:00:13.739Z,10.77
2018-11-04T23:02:42.636Z,10.81
2018-11-04T23:05:16.650Z,10.87
2018-11-04T23:07:45.833Z,10.93
2018-11-04T23:10:14.915Z,10.98
2018-11-04T23:12:43.666Z,11.02
2018-11-04T23:15:12.463Z,11.06
2018-11-04T23:17:41.226Z,11.09
2018-11-04T23:20:10.028Z,11.09
2018-11-04T23:22:38.964Z,11.13
2018-11-04T23:25:09.891Z,11.18
2018-11-04T23:27:38.959Z,11.15
2018-11-04T23:30:12.634Z,11.15
2018-11-04T23:32:41.677Z,11.15
2018-11-04T23:35:11.197Z,11.15
2018-11-04T23:37:40.162Z,11.17
2018-11-04T23:40:10.033Z,11.14
2018-11-04T23:42:38.840Z,11.13
2018-11-04T23:45:09.289Z,11.16
2018-11-04T23:47:38.415Z,11.12
2018-11-04T23:50:09.235Z,11.17
2018-11-04T23:52:38.055Z,11.16
2018-11-04T23:55:07.658Z,11.10
2018-11-04T23:57:36.462Z,11.10
